Ana Sayfa
METAR-TAF:

METAR-TAF

Havaalanları :

San Angelo Regional Airport (Mathis Field)

San Angelo, Teksas, Amerika Birleşik Devletleri

Enlem: 31-21-05N, Boylam: 100-29-38W, yükseklik: 584 m

Güncel hava durumu gözlemi

Rapor saat 00:51 UTC de 38 dakika önce yapıldı.
Rüzgar güneydan 5 kt
Sıcaklık 19°C
Nem 60%
Basınç 1013 hPa
Görüş mesafesi: 16.1 km
Açık gökyüzü

METAR: KSJT 250051Z 18005KT 10SM CLR 19/11 A2990 RMK AO2 SLP117 T01890111

Saat: 20:29 (01:29 UTC)

Tahmin

Rapor saat 23:39 UTC de 1 saat ve 50 dakika önce yapıldı.
Ayın 25'si saat 00 UTC'den ayın 25'si saat 24 UTC'ye kadar geçerli Tahmin
Rüzgar güneydan 8 kt
Görüş mesafesi: 10 km
Açık gökyüzü
Ayın 25'si saat 1500 UTC'den
Rüzgar güney/güneybatıdan 14 kt ve 22 kt'a kadar ani rüzgarlar
Görüş mesafesi: 10 km
Açık gökyüzü

TAF: KSJT 242339Z 2500/2524 19008KT P6SM SKC FM251500 21014G22KT P6SM SKC

4.000'den fazla havaalanı için hava durumu gözlemleri ve tahminleri (METAR ve TAF raporları).

Kullanılabilir istasyonlar harita üzerinde sarı ve kırmızı noktalarla gösterilir.

İstasyonun adını görmek için fareyi noktanın üzerinde gezdirin.

Sonrasında hava gözlem ve tahminlerini görmek için tıklayın.

Haritayı değiştirmek için: yaklaştırmak için siyah artı işaretli yeşil düğmeye ve uzaklaştırmak için de eksi işaretli düğmeye hızla tıklayın; bitişik haritalar için yeşil okları kullanın.


METAR-TAF: